createdAt,value
2022-09-29T00:00:57.084Z,1.10
2022-09-29T00:03:44.869Z,1.65
2022-09-29T00:06:32.743Z,1.58
2022-09-29T00:09:20.623Z,1.40
2022-09-29T00:12:08.401Z,1.80
2022-09-29T00:14:56.155Z,1.40
2022-09-29T00:18:02.687Z,1.20
2022-09-29T00:21:06.156Z,1.38
2022-09-29T00:23:53.935Z,1.52
2022-09-29T00:26:41.870Z,1.40
2022-09-29T00:29:29.643Z,1.65
2022-09-29T00:32:17.405Z,1.20
2022-09-29T00:35:08.341Z,1.20
2022-09-29T00:37:56.057Z,1.45
2022-09-29T00:40:44.027Z,1.20
2022-09-29T00:43:59.610Z,1.35
2022-09-29T00:46:59.326Z,1.10
2022-09-29T00:50:03.876Z,0.90
2022-09-29T00:53:01.281Z,1.52
2022-09-29T00:56:03.840Z,1.50
2022-09-29T00:59:00.154Z,1.25
2022-09-29T01:01:48.411Z,1.40
2022-09-29T01:04:36.861Z,1.30
2022-09-29T01:07:25.364Z,0.82
2022-09-29T01:10:17.132Z,1.15
2022-09-29T01:13:05.523Z,1.17
2022-09-29T01:15:53.432Z,1.08
2022-09-29T01:18:42.355Z,1.25
2022-09-29T01:22:28.969Z,1.08
2022-09-29T01:25:50.641Z,1.23
2022-09-29T01:28:59.200Z,1.00
2022-09-29T01:31:59.974Z,1.35
2022-09-29T01:35:22.743Z,1.15
2022-09-29T01:39:03.468Z,1.00
2022-09-29T01:42:28.481Z,1.23
2022-09-29T01:46:01.797Z,1.17
2022-09-29T01:48:54.547Z,1.00
2022-09-29T01:51:58.326Z,1.00
2022-09-29T01:55:20.287Z,1.35
2022-09-29T01:58:15.296Z,1.08
2022-09-29T02:01:10.676Z,0.90
2022-09-29T02:04:04.980Z,0.95
2022-09-29T02:07:01.880Z,1.13
2022-09-29T02:09:54.571Z,1.27
2022-09-29T02:12:44.952Z,1.30
2022-09-29T02:15:38.656Z,1.40
2022-09-29T02:18:37.468Z,1.50
2022-09-29T02:21:27.243Z,1.30
2022-09-29T02:24:15.895Z,1.00
2022-09-29T02:27:05.021Z,0.93
2022-09-29T02:29:53.305Z,1.30
2022-09-29T02:32:41.054Z,1.10
2022-09-29T02:35:56.968Z,0.98
2022-09-29T02:39:08.068Z,1.00
2022-09-29T02:42:23.772Z,1.10
2022-09-29T02:45:36.420Z,1.08
2022-09-29T02:49:01.879Z,1.20
2022-09-29T02:52:02.692Z,1.10
2022-09-29T02:55:25.736Z,1.10
2022-09-29T02:58:20.754Z,1.00
2022-09-29T03:01:08.820Z,1.00
2022-09-29T03:03:59.046Z,0.90
2022-09-29T03:06:49.021Z,1.17
2022-09-29T03:09:36.805Z,0.75
2022-09-29T03:12:24.617Z,0.88
2022-09-29T03:15:12.593Z,1.10
2022-09-29T03:18:05.148Z,0.88
2022-09-29T03:20:55.310Z,0.90
2022-09-29T03:23:43.066Z,1.02
2022-09-29T03:26:30.837Z,1.20
2022-09-29T03:29:18.562Z,1.00
2022-09-29T03:32:06.402Z,0.98
2022-09-29T03:34:54.263Z,0.93
2022-09-29T03:37:41.978Z,0.90
2022-09-29T03:40:29.892Z,1.10
2022-09-29T03:43:17.687Z,1.17
2022-09-29T03:46:05.914Z,1.00
2022-09-29T03:48:55.011Z,0.90
2022-09-29T03:51:43.318Z,1.15
2022-09-29T03:54:31.525Z,0.77
2022-09-29T03:57:19.275Z,1.00
2022-09-29T04:00:07.961Z,0.95
2022-09-29T04:02:55.810Z,0.85
2022-09-29T04:05:47.029Z,1.10
2022-09-29T04:08:37.269Z,0.90
2022-09-29T04:11:25.061Z,1.00
2022-09-29T04:14:12.831Z,1.45
2022-09-29T04:17:00.688Z,1.00
2022-09-29T04:19:48.432Z,1.10
2022-09-29T04:22:36.198Z,1.27
2022-09-29T04:25:24.050Z,0.90
2022-09-29T04:28:12.518Z,0.90
2022-09-29T04:31:00.309Z,1.10
2022-09-29T04:33:48.013Z,0.88
2022-09-29T04:36:35.735Z,1.02
2022-09-29T04:39:23.587Z,1.00
2022-09-29T04:42:11.348Z,0.82
2022-09-29T04:44:59.254Z,0.75
2022-09-29T04:47:47.000Z,0.90
2022-09-29T04:50:34.763Z,1.27
2022-09-29T04:53:22.490Z,0.68
2022-09-29T04:56:10.324Z,0.68
2022-09-29T04:58:59.063Z,0.80
2022-09-29T05:01:46.857Z,1.00
2022-09-29T05:04:34.606Z,1.00
2022-09-29T05:07:22.390Z,0.90
2022-09-29T05:10:10.533Z,1.10
2022-09-29T05:12:58.299Z,1.30
2022-09-29T05:15:46.193Z,2.03
2022-09-29T05:18:34.336Z,2.95
2022-09-29T05:21:29.673Z,3.70
2022-09-29T05:24:17.565Z,4.13
2022-09-29T05:27:05.300Z,3.65
2022-09-29T05:29:53.067Z,3.40
2022-09-29T05:32:43.753Z,3.50
2022-09-29T05:35:31.955Z,3.17
2022-09-29T05:38:20.116Z,3.95
2022-09-29T05:41:12.054Z,3.83
2022-09-29T05:44:01.410Z,3.28
2022-09-29T05:46:49.359Z,3.75
2022-09-29T05:49:37.084Z,3.55
2022-09-29T05:52:24.839Z,3.38
2022-09-29T05:55:12.844Z,3.47
2022-09-29T05:58:00.588Z,3.28
2022-09-29T06:00:48.379Z,3.33
2022-09-29T06:03:36.981Z,3.08
2022-09-29T06:06:27.820Z,2.80
2022-09-29T06:09:15.798Z,3.10
2022-09-29T06:12:04.573Z,2.80
2022-09-29T06:14:52.310Z,3.42
2022-09-29T06:17:40.110Z,2.95
2022-09-29T06:20:28.097Z,3.70
2022-09-29T06:23:15.894Z,3.85
2022-09-29T06:26:08.015Z,3.75
2022-09-29T06:28:56.860Z,3.60
2022-09-29T06:31:44.650Z,3.13
2022-09-29T06:34:32.480Z,3.25
2022-09-29T06:37:35.052Z,3.08
2022-09-29T06:40:23.707Z,2.85
2022-09-29T06:43:13.008Z,2.97
2022-09-29T06:46:01.076Z,3.00
2022-09-29T06:48:48.962Z,3.72
2022-09-29T06:51:45.095Z,2.85
2022-09-29T06:54:33.828Z,3.33
2022-09-29T06:57:21.780Z,3.03
2022-09-29T07:00:10.270Z,3.00
2022-09-29T07:02:58.245Z,2.88
2022-09-29T07:05:52.763Z,2.70
2022-09-29T07:08:55.357Z,3.13
2022-09-29T07:11:46.737Z,2.75
2022-09-29T07:14:34.730Z,2.72
2022-09-29T07:17:23.077Z,2.88
2022-09-29T07:20:10.818Z,2.83
2022-09-29T07:22:59.165Z,2.45
2022-09-29T07:25:51.990Z,2.58
2022-09-29T07:28:40.732Z,2.10
2022-09-29T07:31:30.167Z,2.63
2022-09-29T07:34:20.801Z,2.67
2022-09-29T07:37:08.537Z,2.65
2022-09-29T07:39:56.499Z,2.90
2022-09-29T07:42:44.261Z,2.75
2022-09-29T07:45:32.064Z,2.42
2022-09-29T07:48:19.906Z,2.60
2022-09-29T07:51:15.195Z,2.53
2022-09-29T07:54:04.643Z,2.72
2022-09-29T07:56:52.361Z,3.33
2022-09-29T07:59:47.324Z,2.47
2022-09-29T08:02:37.664Z,2.60
2022-09-29T08:05:27.461Z,2.75
2022-09-29T08:08:15.268Z,2.65
2022-09-29T08:11:23.077Z,2.42
2022-09-29T08:14:15.933Z,2.75
2022-09-29T08:17:03.872Z,2.22
2022-09-29T08:19:51.756Z,2.78
2022-09-29T08:22:39.525Z,2.17
2022-09-29T08:25:27.301Z,3.50
2022-09-29T08:28:24.127Z,3.45
2022-09-29T08:31:21.197Z,3.45
2022-09-29T08:34:09.770Z,3.35
2022-09-29T08:36:57.844Z,2.75
2022-09-29T08:39:45.615Z,3.03
2022-09-29T08:42:57.191Z,3.08
2022-09-29T08:46:00.858Z,3.25
2022-09-29T08:48:58.069Z,2.97
2022-09-29T08:51:55.167Z,3.25
2022-09-29T08:54:48.687Z,3.50
2022-09-29T08:57:37.429Z,3.30
2022-09-29T09:00:40.393Z,3.03
2022-09-29T09:04:10.045Z,3.03
2022-09-29T09:07:44.161Z,2.65
2022-09-29T09:11:02.382Z,3.47
2022-09-29T09:14:07.207Z,3.08
2022-09-29T09:17:22.333Z,2.72
2022-09-29T09:20:36.812Z,3.05
2022-09-29T09:26:59.706Z,3.03
2022-09-29T09:29:50.268Z,2.60
2022-09-29T09:32:55.510Z,3.42
2022-09-29T09:36:34.034Z,3.25
2022-09-29T09:39:31.521Z,3.20
2022-09-29T09:42:25.987Z,2.60
2022-09-29T09:45:40.106Z,2.85
2022-09-29T09:48:42.849Z,3.20
2022-09-29T09:51:47.396Z,2.50
2022-09-29T09:54:40.709Z,3.05
2022-09-29T09:58:05.175Z,2.97
2022-09-29T10:00:59.082Z,4.47
2022-09-29T10:03:46.863Z,3.42
2022-09-29T10:06:34.631Z,3.83
2022-09-29T10:09:22.764Z,3.58
2022-09-29T10:12:19.740Z,3.53
2022-09-29T10:15:27.387Z,3.78
2022-09-29T10:18:25.896Z,3.80
2022-09-29T10:21:43.984Z,3.53
2022-09-29T10:24:31.769Z,3.85
2022-09-29T10:27:22.118Z,3.47
2022-09-29T10:30:24.209Z,4.25
2022-09-29T10:33:19.156Z,3.05
2022-09-29T10:36:11.036Z,3.10
2022-09-29T10:39:02.402Z,3.10
2022-09-29T10:41:54.044Z,3.10
2022-09-29T10:44:42.009Z,2.97
2022-09-29T10:47:29.738Z,2.97
2022-09-29T10:50:27.133Z,2.92
2022-09-29T10:53:42.827Z,2.97
2022-09-29T10:56:30.722Z,3.13
2022-09-29T10:59:19.506Z,2.97
2022-09-29T11:02:21.654Z,2.72
2022-09-29T11:05:23.559Z,3.28
2022-09-29T11:08:13.307Z,3.20
2022-09-29T11:11:09.097Z,3.22
2022-09-29T11:13:57.758Z,2.92
2022-09-29T11:16:55.606Z,3.53
2022-09-29T11:19:43.427Z,2.83
2022-09-29T11:23:25.283Z,2.85
2022-09-29T11:26:26.097Z,2.72
2022-09-29T11:29:41.548Z,3.22
2022-09-29T11:32:39.842Z,3.33
2022-09-29T11:36:05.570Z,2.70
2022-09-29T11:39:26.438Z,2.80
2022-09-29T11:42:39.359Z,2.75
2022-09-29T11:46:07.913Z,2.75
2022-09-29T11:49:34.684Z,2.60
2022-09-29T11:53:06.965Z,3.22
2022-09-29T11:56:24.041Z,3.00
2022-09-29T11:59:20.570Z,2.72
2022-09-29T12:02:34.046Z,2.83
2022-09-29T12:06:07.445Z,2.88
2022-09-29T12:09:38.359Z,2.85
2022-09-29T12:12:55.697Z,3.13
2022-09-29T12:16:08.102Z,3.08
2022-09-29T12:19:06.997Z,3.20
2022-09-29T12:21:58.198Z,2.50
2022-09-29T12:24:54.776Z,2.30
2022-09-29T12:27:44.405Z,2.78
2022-09-29T12:31:01.675Z,3.05
2022-09-29T12:33:57.506Z,2.78
2022-09-29T12:37:06.053Z,3.03
2022-09-29T12:40:02.169Z,2.90
2022-09-29T12:43:17.637Z,2.67
2022-09-29T12:46:29.135Z,2.63
2022-09-29T12:49:29.227Z,2.85
2022-09-29T12:52:29.270Z,2.70
2022-09-29T12:55:44.406Z,2.70
2022-09-29T12:58:45.777Z,2.38
2022-09-29T13:01:37.011Z,2.75
2022-09-29T13:04:54.427Z,2.80
2022-09-29T13:08:19.947Z,2.33
2022-09-29T13:11:26.388Z,2.63
2022-09-29T13:15:01.287Z,3.28
2022-09-29T13:18:11.170Z,2.28
2022-09-29T13:21:24.425Z,2.78
2022-09-29T13:24:27.070Z,2.40
2022-09-29T13:27:34.950Z,2.50
2022-09-29T13:30:29.077Z,2.53
2022-09-29T13:33:25.904Z,2.40
2022-09-29T13:36:28.169Z,2.05
2022-09-29T13:39:27.116Z,2.10
2022-09-29T13:42:36.518Z,2.65
2022-09-29T13:45:31.445Z,2.95
2022-09-29T13:48:36.650Z,2.40
2022-09-29T13:51:52.262Z,2.67
2022-09-29T13:54:42.070Z,1.92
2022-09-29T13:57:29.898Z,2.42
2022-09-29T14:00:20.161Z,2.60
2022-09-29T14:03:26.891Z,2.58
2022-09-29T14:06:40.627Z,2.35
2022-09-29T14:12:27.541Z,2.27
2022-09-29T14:15:18.835Z,2.38
2022-09-29T14:18:24.949Z,2.22
2022-09-29T14:21:49.608Z,2.50
2022-09-29T14:27:33.177Z,2.67
2022-09-29T14:30:33.144Z,2.25
2022-09-29T14:33:38.296Z,1.90
2022-09-29T14:36:26.550Z,2.33
2022-09-29T14:39:25.993Z,2.20
2022-09-29T14:42:17.579Z,2.65
2022-09-29T14:45:26.382Z,2.75
2022-09-29T14:48:51.309Z,2.40
2022-09-29T14:52:11.329Z,2.35
2022-09-29T14:55:26.492Z,2.22
2022-09-29T14:58:42.078Z,2.35
2022-09-29T15:01:32.479Z,2.35
2022-09-29T15:04:20.250Z,2.20
2022-09-29T15:07:14.704Z,2.53
2022-09-29T15:10:06.160Z,2.17
2022-09-29T15:13:20.078Z,2.38
2022-09-29T15:16:43.076Z,2.45
2022-09-29T15:19:58.785Z,2.45
2022-09-29T15:23:11.352Z,2.40
2022-09-29T15:26:02.280Z,2.55
2022-09-29T15:28:50.063Z,1.95
2022-09-29T15:31:37.810Z,2.75
2022-09-29T15:34:26.063Z,2.40
2022-09-29T15:37:15.429Z,2.10
2022-09-29T15:40:03.744Z,2.00
2022-09-29T15:42:54.523Z,2.17
2022-09-29T15:45:59.540Z,1.98
2022-09-29T15:49:23.812Z,2.13
2022-09-29T15:52:15.059Z,1.80
2022-09-29T15:55:02.989Z,2.20
2022-09-29T15:57:57.915Z,2.38
2022-09-29T16:00:45.897Z,1.90
2022-09-29T16:03:40.917Z,1.95
2022-09-29T16:06:39.489Z,2.08
2022-09-29T16:09:27.391Z,2.17
2022-09-29T16:12:20.642Z,2.30
2022-09-29T16:15:19.115Z,2.30
2022-09-29T16:18:13.478Z,1.95
2022-09-29T16:21:09.146Z,2.15
2022-09-29T16:24:02.597Z,2.05
2022-09-29T16:26:53.746Z,1.80
2022-09-29T16:29:41.505Z,2.05
2022-09-29T16:32:39.799Z,1.95
2022-09-29T16:35:42.065Z,2.30
2022-09-29T16:38:41.142Z,1.90
2022-09-29T16:41:38.247Z,1.75
2022-09-29T16:44:34.353Z,1.90
2022-09-29T16:47:29.005Z,1.95
2022-09-29T16:50:16.823Z,1.90
2022-09-29T16:53:04.699Z,2.05
2022-09-29T16:56:10.364Z,1.48
2022-09-29T16:59:17.303Z,1.90
2022-09-29T17:02:10.472Z,1.90
2022-09-29T17:04:58.331Z,2.10
2022-09-29T17:07:46.069Z,1.92
2022-09-29T17:10:36.079Z,1.90
2022-09-29T17:13:24.836Z,1.83
2022-09-29T17:16:21.080Z,2.20
2022-09-29T17:19:11.224Z,1.98
2022-09-29T17:21:59.617Z,2.53
2022-09-29T17:24:47.368Z,3.90
2022-09-29T17:27:53.507Z,3.97
2022-09-29T17:30:48.427Z,3.13
2022-09-29T17:33:37.160Z,2.83
2022-09-29T17:36:25.314Z,3.00
2022-09-29T17:39:13.082Z,2.95
2022-09-29T17:42:00.866Z,3.00
2022-09-29T17:44:48.805Z,3.08
2022-09-29T17:47:37.764Z,2.97
2022-09-29T17:50:47.487Z,2.58
2022-09-29T17:53:35.282Z,2.50
2022-09-29T17:56:25.886Z,2.40
2022-09-29T17:59:14.250Z,3.03
2022-09-29T18:02:02.695Z,2.63
2022-09-29T18:04:50.501Z,2.28
2022-09-29T18:07:38.431Z,2.88
2022-09-29T18:10:41.142Z,2.50
2022-09-29T18:13:33.515Z,2.35
2022-09-29T18:16:23.955Z,2.55
2022-09-29T18:19:17.162Z,2.40
2022-09-29T18:22:06.391Z,2.60
2022-09-29T18:24:54.147Z,2.30
2022-09-29T18:27:42.279Z,2.22
2022-09-29T18:30:36.461Z,2.30
2022-09-29T18:33:24.186Z,2.25
2022-09-29T18:36:12.172Z,1.90
2022-09-29T18:38:59.929Z,2.30
2022-09-29T18:41:47.706Z,2.20
2022-09-29T18:44:36.638Z,2.20
2022-09-29T18:47:24.402Z,2.03
2022-09-29T18:50:22.508Z,1.95
2022-09-29T18:53:12.435Z,2.38
2022-09-29T18:56:04.612Z,1.95
2022-09-29T18:58:52.487Z,2.00
2022-09-29T19:01:41.066Z,2.00
2022-09-29T19:04:30.221Z,2.30
2022-09-29T19:07:19.444Z,1.85
2022-09-29T19:10:07.844Z,2.17
2022-09-29T19:12:58.892Z,2.42
2022-09-29T19:15:48.101Z,2.83
2022-09-29T19:18:35.917Z,2.50
2022-09-29T19:21:24.970Z,1.88
2022-09-29T19:24:12.702Z,2.10
2022-09-29T19:27:00.492Z,1.90
2022-09-29T19:29:54.007Z,2.47
2022-09-29T19:32:43.019Z,2.03
2022-09-29T19:35:30.817Z,1.90
2022-09-29T19:38:19.642Z,2.22
2022-09-29T19:41:22.632Z,2.58
2022-09-29T19:44:10.586Z,1.90
2022-09-29T19:47:00.312Z,1.92
2022-09-29T19:49:48.175Z,2.15
2022-09-29T19:52:35.960Z,1.70
2022-09-29T19:55:24.337Z,1.90
2022-09-29T19:58:12.421Z,1.98
2022-09-29T20:01:00.139Z,1.90
2022-09-29T20:03:48.236Z,1.85
2022-09-29T20:06:36.008Z,2.03
2022-09-29T20:09:24.848Z,2.10
2022-09-29T20:12:18.521Z,1.90
2022-09-29T20:15:08.619Z,1.77
2022-09-29T20:17:56.400Z,1.67
2022-09-29T20:20:44.335Z,1.52
2022-09-29T20:23:32.080Z,2.10
2022-09-29T20:26:20.651Z,1.58
2022-09-29T20:29:08.822Z,1.60
2022-09-29T20:31:56.835Z,1.73
2022-09-29T20:34:45.023Z,2.20
2022-09-29T20:37:32.779Z,1.70
2022-09-29T20:40:20.522Z,2.00
2022-09-29T20:43:11.907Z,1.98
2022-09-29T20:46:06.470Z,1.70
2022-09-29T20:48:56.630Z,1.58
2022-09-29T20:51:45.478Z,1.70
2022-09-29T20:54:33.344Z,1.90
2022-09-29T20:57:21.073Z,1.70
2022-09-29T21:00:10.458Z,1.50
2022-09-29T21:02:58.325Z,1.70
2022-09-29T21:05:47.612Z,1.90
2022-09-29T21:08:35.495Z,1.85
2022-09-29T21:11:23.323Z,1.50
2022-09-29T21:14:24.085Z,1.38
2022-09-29T21:17:11.840Z,1.80
2022-09-29T21:19:59.647Z,1.60
2022-09-29T21:22:47.673Z,1.80
2022-09-29T21:25:35.648Z,1.83
2022-09-29T21:28:23.920Z,1.63
2022-09-29T21:31:17.017Z,1.67
2022-09-29T21:34:07.754Z,1.80
2022-09-29T21:36:55.528Z,1.80
2022-09-29T21:39:43.366Z,1.60
2022-09-29T21:42:33.356Z,1.38
2022-09-29T21:45:21.067Z,1.67
2022-09-29T21:48:09.051Z,1.90
2022-09-29T21:51:09.595Z,1.35
2022-09-29T21:54:01.256Z,1.30
2022-09-29T21:56:50.445Z,1.45
2022-09-29T21:59:38.229Z,1.75
2022-09-29T22:02:26.014Z,1.83
2022-09-29T22:05:13.924Z,1.52
2022-09-29T22:08:01.943Z,1.55
2022-09-29T22:10:51.493Z,1.13
2022-09-29T22:13:39.741Z,1.58
2022-09-29T22:16:31.476Z,1.80
2022-09-29T22:19:24.034Z,1.60
2022-09-29T22:22:12.592Z,1.43
2022-09-29T22:25:00.341Z,1.75
2022-09-29T22:27:48.343Z,1.45
2022-09-29T22:30:36.142Z,1.40
2022-09-29T22:33:23.855Z,1.92
2022-09-29T22:36:12.449Z,1.42
2022-09-29T22:39:01.746Z,1.48
2022-09-29T22:41:52.524Z,1.30
2022-09-29T22:44:40.212Z,1.20
2022-09-29T22:47:27.972Z,1.50
2022-09-29T22:50:15.696Z,1.50
2022-09-29T22:53:03.455Z,1.60
2022-09-29T22:55:51.232Z,1.52
2022-09-29T22:58:41.050Z,1.45
2022-09-29T23:01:29.438Z,1.85
2022-09-29T23:04:17.280Z,1.63
2022-09-29T23:07:06.759Z,1.83
2022-09-29T23:09:54.458Z,1.45
2022-09-29T23:12:42.795Z,1.52
2022-09-29T23:15:30.534Z,1.40
2022-09-29T23:18:19.051Z,1.50
2022-09-29T23:21:07.054Z,1.52
2022-09-29T23:24:00.774Z,1.42
2022-09-29T23:26:49.018Z,1.70
2022-09-29T23:29:36.826Z,1.40
2022-09-29T23:32:24.798Z,1.35
2022-09-29T23:35:12.658Z,1.80
2022-09-29T23:38:19.013Z,1.40
2022-09-29T23:41:08.031Z,1.23
2022-09-29T23:43:58.819Z,1.40
2022-09-29T23:46:47.590Z,1.20
2022-09-29T23:49:35.372Z,1.40
2022-09-29T23:52:23.861Z,1.52
2022-09-29T23:55:11.844Z,1.40
2022-09-29T23:58:00.833Z,1.77
